Time;durP1;ratioP1;P1;durP2;ratioP2;P2;SDS_P1;SDS_P2;PMS_P1;PMS_P2;Temp;Humidity;BMP_temperature;BMP_pressure;BME280_temperature;BME280_humidity;BME280_pressure;Samples;Min_cycle;Max_cycle;Signal;HPM_P1;HPM_P2
2023/10/14 00:00:37;;;;;;;21.70;12.68;;;;;;;;;;12636055;23;20028;-68
2023/10/14 00:05:35;;;;;;;16.00;11.85;;;;;;;;;;12635330;23;20028;-67
2023/10/14 00:10:33;;;;;;;8.55;7.80;;;;;;;;;;12635246;23;20024;-67
2023/10/14 00:15:34;;;;;;;8.50;7.82;;;;;;;;;;12633609;23;20028;-68
2023/10/14 00:20:35;;;;;;;8.02;7.45;;;;;;;;;;12634895;23;20025;-66
2023/10/14 00:25:34;;;;;;;8.65;7.80;;;;;;;;;;12633852;23;20028;-66
2023/10/14 00:30:31;;;;;;;9.00;8.20;;;;;;;;;;12634414;23;20119;-67
2023/10/14 00:35:28;;;;;;;7.40;6.90;;;;;;;;;;12627571;23;20382;-68
2023/10/14 00:40:24;;;;;;;13.50;7.10;;;;;;;;;;12635390;23;20076;-68
2023/10/14 00:45:21;;;;;;;8.10;7.47;;;;;;;;;;12633111;23;20043;-68
2023/10/14 00:50:22;;;;;;;11.00;7.78;;;;;;;;;;12628678;23;20025;-67
2023/10/14 00:55:24;;;;;;;8.50;7.23;;;;;;;;;;12634121;23;20399;-68
2023/10/14 01:00:33;;;;;;;10.07;7.68;;;;;;;;;;12633562;23;20020;-67
2023/10/14 01:05:29;;;;;;;9.70;7.50;;;;;;;;;;12633098;23;20102;-67
2023/10/14 01:10:27;;;;;;;11.02;7.88;;;;;;;;;;12634234;23;20362;-67
2023/10/14 01:15:29;;;;;;;7.95;7.15;;;;;;;;;;12633013;23;20556;-67
2023/10/14 01:20:27;;;;;;;11.53;7.70;;;;;;;;;;12634011;23;20426;-67
2023/10/14 01:25:31;;;;;;;8.30;7.50;;;;;;;;;;12630516;23;20422;-67
2023/10/14 01:30:32;;;;;;;9.27;7.97;;;;;;;;;;12634042;23;20083;-67
2023/10/14 01:40:36;;;;;;;11.63;8.27;;;;;;;;;;12634002;23;20462;-68
2023/10/14 01:45:39;;;;;;;9.55;8.60;;;;;;;;;;12632952;23;20031;-68
2023/10/14 01:50:45;;;;;;;9.75;8.85;;;;;;;;;;12633428;23;20024;-67
2023/10/14 01:55:42;;;;;;;9.13;8.35;;;;;;;;;;12633896;23;20020;-68
2023/10/14 02:00:39;;;;;;;10.30;9.05;;;;;;;;;;12633486;23;20071;-67
2023/10/14 02:05:41;;;;;;;12.25;8.27;;;;;;;;;;12633245;23;20031;-66
2023/10/14 02:10:37;;;;;;;13.57;8.98;;;;;;;;;;12631753;23;20052;-67
2023/10/14 02:15:34;;;;;;;11.15;7.60;;;;;;;;;;12629562;23;20029;-68
2023/10/14 02:20:38;;;;;;;10.02;8.48;;;;;;;;;;12632988;23;20027;-67
2023/10/14 02:25:35;;;;;;;11.48;7.82;;;;;;;;;;12631853;23;20344;-67
2023/10/14 02:30:32;;;;;;;9.55;7.53;;;;;;;;;;12632446;23;20527;-66
2023/10/14 02:35:30;;;;;;;8.10;7.30;;;;;;;;;;12631253;23;20028;-66
2023/10/14 02:40:26;;;;;;;11.20;7.53;;;;;;;;;;12622551;23;20863;-66
2023/10/14 02:45:24;;;;;;;7.90;7.15;;;;;;;;;;12631412;23;20024;-66
2023/10/14 02:50:24;;;;;;;12.95;7.20;;;;;;;;;;12626460;23;20386;-66
2023/10/14 02:55:25;;;;;;;8.02;7.28;;;;;;;;;;12631675;23;20097;-68
2023/10/14 03:00:29;;;;;;;9.30;7.22;;;;;;;;;;12634892;23;20025;-68
2023/10/14 03:10:42;;;;;;;8.02;7.22;;;;;;;;;;12636928;23;20075;-68
2023/10/14 03:15:42;;;;;;;10.32;7.75;;;;;;;;;;12635177;23;20091;-68
2023/10/14 03:25:56;;;;;;;9.73;7.82;;;;;;;;;;12635549;23;20366;-68
2023/10/14 03:30:56;;;;;;;10.40;8.00;;;;;;;;;;12636421;23;20036;-68
2023/10/14 03:36:00;;;;;;;11.35;7.25;;;;;;;;;;12635955;23;20032;-68
2023/10/14 03:41:10;;;;;;;16.85;8.38;;;;;;;;;;12635630;23;20024;-68
2023/10/14 03:46:11;;;;;;;9.60;7.85;;;;;;;;;;12636017;23;20028;-68
2023/10/14 03:51:10;;;;;;;10.23;7.90;;;;;;;;;;12629925;23;20024;-68
2023/10/14 03:56:07;;;;;;;11.45;8.02;;;;;;;;;;12628961;23;20662;-69
2023/10/14 04:01:03;;;;;;;11.43;8.05;;;;;;;;;;12635954;23;20028;-68
2023/10/14 04:06:00;;;;;;;10.57;7.70;;;;;;;;;;12635453;23;20032;-68
2023/10/14 04:11:10;;;;;;;10.75;8.00;;;;;;;;;;12634843;23;20055;-69
2023/10/14 04:16:11;;;;;;;13.68;8.43;;;;;;;;;;12634786;23;20024;-68
2023/10/14 04:26:11;;;;;;;11.60;8.38;;;;;;;;;;12635045;23;20021;-69
2023/10/14 04:31:16;;;;;;;15.48;9.10;;;;;;;;;;12634979;23;20116;-68
2023/10/14 04:41:16;;;;;;;11.90;8.60;;;;;;;;;;12634711;23;20043;-68
2023/10/14 04:46:16;;;;;;;10.20;9.15;;;;;;;;;;12633903;23;20099;-68
2023/10/14 04:51:16;;;;;;;10.32;8.98;;;;;;;;;;12634704;23;20091;-68
2023/10/14 04:56:21;;;;;;;17.00;9.50;;;;;;;;;;12623821;23;20020;-69
2023/10/14 05:01:24;;;;;;;12.63;9.20;;;;;;;;;;12634528;23;20029;-69
2023/10/14 05:06:21;;;;;;;14.55;8.55;;;;;;;;;;12634554;23;20478;-70
2023/10/14 05:11:18;;;;;;;11.02;8.90;;;;;;;;;;12634577;23;20079;-69
2023/10/14 05:16:15;;;;;;;10.30;8.60;;;;;;;;;;12633890;23;20067;-70
2023/10/14 05:21:20;;;;;;;9.68;8.60;;;;;;;;;;12633801;23;20459;-68
2023/10/14 05:26:27;;;;;;;10.40;9.50;;;;;;;;;;12634159;23;20470;-68
2023/10/14 05:31:25;;;;;;;9.38;7.75;;;;;;;;;;12634451;23;20091;-68
2023/10/14 05:36:22;;;;;;;13.40;8.10;;;;;;;;;;12634449;23;20103;-68
2023/10/14 05:41:18;;;;;;;11.85;7.57;;;;;;;;;;12633420;23;20082;-69
2023/10/14 05:46:15;;;;;;;10.95;7.90;;;;;;;;;;12633936;23;20055;-68
2023/10/14 05:51:15;;;;;;;12.40;6.93;;;;;;;;;;12633259;23;20092;-69
2023/10/14 05:56:15;;;;;;;9.10;7.10;;;;;;;;;;12627968;23;20697;-68
2023/10/14 06:01:16;;;;;;;8.00;7.05;;;;;;;;;;12632844;23;20367;-68
2023/10/14 06:06:16;;;;;;;14.52;6.82;;;;;;;;;;12629656;23;20080;-70
2023/10/14 06:11:13;;;;;;;7.85;7.10;;;;;;;;;;12633552;23;20079;-70
2023/10/14 06:16:10;;;;;;;11.77;7.07;;;;;;;;;;12632652;23;20028;-69
2023/10/14 06:21:08;;;;;;;15.32;7.03;;;;;;;;;;12633257;23;20025;-69
2023/10/14 06:26:05;;;;;;;13.13;6.95;;;;;;;;;;12633071;23;20017;-69
2023/10/14 06:31:04;;;;;;;14.52;7.05;;;;;;;;;;12631159;23;20707;-69
2023/10/14 06:36:04;;;;;;;10.90;5.88;;;;;;;;;;12635557;23;20020;-69
2023/10/14 06:41:01;;;;;;;13.43;6.57;;;;;;;;;;12637260;23;20080;-69
2023/10/14 06:45:58;;;;;;;8.35;6.68;;;;;;;;;;12637573;23;20024;-70
2023/10/14 06:50:55;;;;;;;10.48;6.68;;;;;;;;;;12635493;23;20047;-70
2023/10/14 06:55:51;;;;;;;11.52;7.03;;;;;;;;;;12635427;23;20463;-69
2023/10/14 07:00:51;;;;;;;15.52;6.28;;;;;;;;;;12637187;23;20067;-69
2023/10/14 07:05:56;;;;;;;15.73;5.95;;;;;;;;;;12624183;23;20104;-69
2023/10/14 07:10:54;;;;;;;11.20;5.90;;;;;;;;;;12636626;23;20024;-69
2023/10/14 07:15:51;;;;;;;9.70;6.63;;;;;;;;;;12635493;23;20020;-69
2023/10/14 07:20:59;;;;;;;16.55;6.15;;;;;;;;;;12635410;23;20091;-69
2023/10/14 07:25:57;;;;;;;12.57;6.45;;;;;;;;;;12632739;23;20020;-72
2023/10/14 07:30:56;;;;;;;12.85;6.13;;;;;;;;;;12632602;23;20485;-68
2023/10/14 07:35:53;;;;;;;15.00;6.65;;;;;;;;;;12633399;23;20545;-69
2023/10/14 07:40:50;;;;;;;14.77;7.00;;;;;;;;;;12634396;23;20532;-68
2023/10/14 07:45:46;;;;;;;21.17;7.15;;;;;;;;;;12627920;23;20029;-69
2023/10/14 07:50:46;;;;;;;12.55;6.97;;;;;;;;;;12632603;23;20024;-69
2023/10/14 07:55:44;;;;;;;11.02;7.28;;;;;;;;;;12633159;23;20016;-69
2023/10/14 08:00:48;;;;;;;17.52;6.28;;;;;;;;;;12635602;23;20131;-69
2023/10/14 08:05:48;;;;;;;14.43;6.35;;;;;;;;;;12633374;23;20024;-69
2023/10/14 08:10:46;;;;;;;14.27;6.35;;;;;;;;;;12634777;23;20025;-69
2023/10/14 08:15:42;;;;;;;13.43;5.55;;;;;;;;;;12626024;23;20025;-69
2023/10/14 08:20:43;;;;;;;10.15;6.00;;;;;;;;;;12634773;23;20032;-72
2023/10/14 08:25:41;;;;;;;15.52;4.97;;;;;;;;;;12633349;23;20028;-72
2023/10/14 08:30:50;;;;;;;15.98;5.03;;;;;;;;;;12632857;23;20494;-72
2023/10/14 08:35:48;;;;;;;10.27;4.20;;;;;;;;;;12630419;23;20028;-72
2023/10/14 08:40:44;;;;;;;12.73;5.00;;;;;;;;;;12633929;23;20025;-71
2023/10/14 08:45:47;;;;;;;13.23;5.68;;;;;;;;;;12633371;23;20047;-72
2023/10/14 08:50:45;;;;;;;11.57;5.68;;;;;;;;;;12627408;23;20027;-72
2023/10/14 08:55:44;;;;;;;7.90;5.88;;;;;;;;;;12628921;23;20024;-71
2023/10/14 09:00:41;;;;;;;14.40;5.50;;;;;;;;;;12630601;23;20432;-73
2023/10/14 09:05:41;;;;;;;12.23;5.20;;;;;;;;;;12631211;23;20024;-73
2023/10/14 09:10:37;;;;;;;17.35;5.50;;;;;;;;;;12633076;23;20024;-72
2023/10/14 09:15:36;;;;;;;10.60;4.65;;;;;;;;;;12626667;23;20027;-73
2023/10/14 09:20:38;;;;;;;9.75;4.57;;;;;;;;;;12630235;23;21050;-73
2023/10/14 09:25:39;;;;;;;9.63;4.55;;;;;;;;;;12623134;23;20024;-75
2023/10/14 09:30:36;;;;;;;11.27;4.78;;;;;;;;;;12629792;23;20024;-72
2023/10/14 09:35:33;;;;;;;6.90;4.57;;;;;;;;;;12626378;23;20083;-75
2023/10/14 09:40:30;;;;;;;8.43;4.88;;;;;;;;;;12632726;23;20024;-74
2023/10/14 09:45:27;;;;;;;9.25;4.40;;;;;;;;;;12628779;23;20406;-74
2023/10/14 09:50:26;;;;;;;9.25;4.55;;;;;;;;;;12632665;23;20027;-74
2023/10/14 09:55:24;;;;;;;11.95;4.05;;;;;;;;;;12631880;23;20087;-74
2023/10/14 10:00:21;;;;;;;15.25;4.15;;;;;;;;;;12631796;23;20028;-74
2023/10/14 10:05:21;;;;;;;7.18;4.05;;;;;;;;;;12632020;23;20447;-73
2023/10/14 10:10:19;;;;;;;11.48;4.35;;;;;;;;;;12634944;23;20083;-75
2023/10/14 10:15:19;;;;;;;5.57;4.03;;;;;;;;;;12634381;23;20027;-74
2023/10/14 10:20:17;;;;;;;5.35;4.20;;;;;;;;;;12634807;23;20025;-74
2023/10/14 10:25:15;;;;;;;8.35;4.43;;;;;;;;;;12636076;23;20478;-73
2023/10/14 10:30:12;;;;;;;6.82;4.40;;;;;;;;;;12635660;23;20021;-72
2023/10/14 10:35:12;;;;;;;4.95;4.53;;;;;;;;;;12636454;23;20021;-71
2023/10/14 10:40:12;;;;;;;5.68;4.90;;;;;;;;;;12625295;23;20025;-72
2023/10/14 10:45:20;;;;;;;6.80;3.70;;;;;;;;;;12635939;23;20020;-70
2023/10/14 10:50:17;;;;;;;7.95;3.67;;;;;;;;;;12637167;23;20020;-70
2023/10/14 10:55:14;;;;;;;6.65;3.50;;;;;;;;;;12634983;23;20016;-72
2023/10/14 11:00:12;;;;;;;7.07;4.15;;;;;;;;;;12636695;23;20025;-70
2023/10/14 11:05:08;;;;;;;7.60;3.90;;;;;;;;;;12630902;23;20470;-73
2023/10/14 11:10:05;;;;;;;8.73;4.32;;;;;;;;;;12637018;23;20032;-75
2023/10/14 11:15:01;;;;;;;7.43;4.10;;;;;;;;;;12636640;23;20020;-75
2023/10/14 11:19:58;;;;;;;5.60;3.90;;;;;;;;;;12634287;23;20718;-75
2023/10/14 11:24:55;;;;;;;6.25;4.20;;;;;;;;;;12632464;23;20475;-74
2023/10/14 11:29:54;;;;;;;6.40;4.15;;;;;;;;;;12632554;23;20028;-74
2023/10/14 11:34:52;;;;;;;8.13;5.40;;;;;;;;;;12632035;23;20507;-72
2023/10/14 11:39:53;;;;;;;6.38;4.10;;;;;;;;;;12635194;23;20509;-73
2023/10/14 11:44:50;;;;;;;9.63;4.28;;;;;;;;;;12614719;23;20523;-73
2023/10/14 11:49:49;;;;;;;6.88;4.95;;;;;;;;;;12634077;23;20463;-73
2023/10/14 11:54:46;;;;;;;6.20;4.07;;;;;;;;;;12634640;23;20029;-74
2023/10/14 11:59:42;;;;;;;8.05;4.30;;;;;;;;;;12635183;23;20349;-74
2023/10/14 12:04:38;;;;;;;11.57;4.20;;;;;;;;;;12634906;23;20521;-74
2023/10/14 12:09:36;;;;;;;10.38;4.40;;;;;;;;;;12634765;23;20467;-74
2023/10/14 12:14:32;;;;;;;13.18;4.68;;;;;;;;;;12632647;23;20047;-74
2023/10/14 12:19:28;;;;;;;12.85;4.95;;;;;;;;;;12634060;23;20075;-73
2023/10/14 12:24:25;;;;;;;10.80;4.80;;;;;;;;;;12633147;23;20135;-74
2023/10/14 12:29:21;;;;;;;9.70;4.78;;;;;;;;;;12633169;23;20367;-74
2023/10/14 12:34:19;;;;;;;7.43;4.57;;;;;;;;;;12632798;23;20548;-74
2023/10/14 12:39:19;;;;;;;8.60;4.75;;;;;;;;;;12634698;23;20025;-74
2023/10/14 12:44:17;;;;;;;8.35;4.68;;;;;;;;;;12627814;23;20102;-74
2023/10/14 12:49:18;;;;;;;8.93;4.78;;;;;;;;;;12633650;23;20028;-72
2023/10/14 12:54:16;;;;;;;9.07;4.65;;;;;;;;;;12631972;23;20017;-74
2023/10/14 12:59:13;;;;;;;5.80;4.10;;;;;;;;;;12632119;23;20362;-74
2023/10/14 13:04:13;;;;;;;9.25;4.38;;;;;;;;;;12633640;23;20025;-74
2023/10/14 13:09:11;;;;;;;11.50;4.80;;;;;;;;;;12630636;23;20031;-74
2023/10/14 13:14:08;;;;;;;8.90;4.25;;;;;;;;;;12633424;23;20020;-74
2023/10/14 13:19:07;;;;;;;12.63;5.20;;;;;;;;;;12633698;23;20028;-74
2023/10/14 13:24:06;;;;;;;8.88;3.50;;;;;;;;;;12631773;23;20115;-73
2023/10/14 13:29:04;;;;;;;12.23;5.05;;;;;;;;;;12632954;23;20032;-74
2023/10/14 13:34:05;;;;;;;7.60;4.50;;;;;;;;;;12632394;22;20032;-73
2023/10/14 13:39:16;;;;;;;14.90;4.50;;;;;;;;;;12631549;23;20100;-74
2023/10/14 13:44:21;;;;;;;7.55;4.10;;;;;;;;;;12613041;23;20478;-74
2023/10/14 13:49:35;;;;;;;7.93;4.00;;;;;;;;;;12588519;23;20024;-74
2023/10/14 13:54:31;;;;;;;8.48;4.25;;;;;;;;;;12632499;23;20020;-74
2023/10/14 13:59:28;;;;;;;12.40;4.32;;;;;;;;;;12633735;23;20029;-73
2023/10/14 14:04:25;;;;;;;10.50;4.10;;;;;;;;;;12633313;23;20075;-73
2023/10/14 14:09:22;;;;;;;9.48;4.15;;;;;;;;;;12627081;23;20346;-73
2023/10/14 14:14:22;;;;;;;11.55;4.25;;;;;;;;;;12632878;23;20025;-73
2023/10/14 14:19:19;;;;;;;11.70;4.70;;;;;;;;;;12633519;23;20021;-74
2023/10/14 14:24:16;;;;;;;9.30;4.40;;;;;;;;;;12627249;22;20013;-74
2023/10/14 14:29:12;;;;;;;10.63;5.30;;;;;;;;;;12623326;23;20032;-71
2023/10/14 14:34:09;;;;;;;12.75;5.07;;;;;;;;;;12624594;23;20075;-71
2023/10/14 14:39:05;;;;;;;7.00;4.38;;;;;;;;;;12627721;23;20029;-71
2023/10/14 14:44:01;;;;;;;8.32;4.32;;;;;;;;;;12627349;23;20039;-71
2023/10/14 14:48:59;;;;;;;16.17;4.80;;;;;;;;;;12630912;23;20032;-71
2023/10/14 14:53:56;;;;;;;10.38;4.75;;;;;;;;;;12632558;23;20370;-72
2023/10/14 14:58:52;;;;;;;10.25;5.85;;;;;;;;;;12635150;23;20540;-72
2023/10/14 15:03:49;;;;;;;8.85;5.15;;;;;;;;;;12630216;23;20025;-71
2023/10/14 15:08:47;;;;;;;7.38;4.30;;;;;;;;;;12609915;23;20079;-71
2023/10/14 15:13:43;;;;;;;9.10;4.20;;;;;;;;;;12636033;23;20035;-72
2023/10/14 15:18:40;;;;;;;5.35;4.05;;;;;;;;;;12635199;23;20114;-72
2023/10/14 15:23:38;;;;;;;9.93;4.45;;;;;;;;;;12631650;23;20035;-72
2023/10/14 15:28:35;;;;;;;9.45;4.63;;;;;;;;;;12635060;23;20055;-72
2023/10/14 15:33:32;;;;;;;10.63;4.50;;;;;;;;;;12634241;23;20047;-72
2023/10/14 15:38:28;;;;;;;7.30;4.75;;;;;;;;;;12635274;23;20104;-72
2023/10/14 15:43:25;;;;;;;10.35;4.60;;;;;;;;;;12634588;23;20481;-72
2023/10/14 15:48:22;;;;;;;7.68;5.18;;;;;;;;;;12634895;23;20043;-72
2023/10/14 15:53:18;;;;;;;7.60;4.05;;;;;;;;;;12635590;23;20025;-72
2023/10/14 15:58:14;;;;;;;5.03;4.53;;;;;;;;;;12634378;23;20052;-72
2023/10/14 16:03:30;;;;;;;7.35;4.82;;;;;;;;;;12629506;23;20039;-72
2023/10/14 16:08:27;;;;;;;9.82;5.20;;;;;;;;;;12635333;23;20108;-71
2023/10/14 16:13:23;;;;;;;11.13;5.25;;;;;;;;;;12634073;23;20031;-72
2023/10/14 16:18:20;;;;;;;10.05;4.88;;;;;;;;;;12634894;23;20375;-73
2023/10/14 16:23:17;;;;;;;6.90;4.88;;;;;;;;;;12630051;23;20414;-72
2023/10/14 16:28:15;;;;;;;11.25;5.13;;;;;;;;;;12634208;23;20370;-72
2023/10/14 16:33:11;;;;;;;11.13;5.80;;;;;;;;;;12633262;23;20082;-72
2023/10/14 16:38:09;;;;;;;18.38;6.28;;;;;;;;;;12634087;23;20402;-72
2023/10/14 16:43:09;;;;;;;7.50;6.50;;;;;;;;;;12633988;23;20059;-72
2023/10/14 16:48:09;;;;;;;16.52;8.75;;;;;;;;;;12632422;23;20074;-72
2023/10/14 16:53:08;;;;;;;9.05;6.50;;;;;;;;;;12624906;23;20705;-73
2023/10/14 16:58:05;;;;;;;10.48;6.72;;;;;;;;;;12632666;23;20024;-73
2023/10/14 17:03:03;;;;;;;22.05;9.90;;;;;;;;;;12622378;23;20076;-71
2023/10/14 17:08:02;;;;;;;13.38;9.40;;;;;;;;;;12623485;23;20111;-72
2023/10/14 17:13:00;;;;;;;13.60;7.47;;;;;;;;;;12616883;23;20094;-71
2023/10/14 17:17:59;;;;;;;11.07;6.85;;;;;;;;;;12627095;23;20027;-71
2023/10/14 17:23:00;;;;;;;13.57;6.55;;;;;;;;;;12626836;23;20091;-70
2023/10/14 17:27:56;;;;;;;9.50;6.95;;;;;;;;;;12630581;23;20029;-70
2023/10/14 17:32:53;;;;;;;7.63;5.15;;;;;;;;;;12628525;23;20071;-70
2023/10/14 17:37:51;;;;;;;12.38;4.80;;;;;;;;;;12631133;23;20024;-71
2023/10/14 17:42:51;;;;;;;7.13;4.45;;;;;;;;;;12626299;23;20028;-70
2023/10/14 17:47:49;;;;;;;5.95;4.70;;;;;;;;;;12623936;23;20443;-71
2023/10/14 17:52:46;;;;;;;5.50;4.13;;;;;;;;;;12629911;23;20054;-71
2023/10/14 17:57:43;;;;;;;5.88;4.20;;;;;;;;;;12625337;23;20039;-70
2023/10/14 18:02:39;;;;;;;9.57;4.30;;;;;;;;;;12632216;23;20029;-71
2023/10/14 18:07:40;;;;;;;4.93;4.10;;;;;;;;;;12624881;23;20020;-70
2023/10/14 18:12:39;;;;;;;7.00;5.13;;;;;;;;;;12612230;23;20067;-70
2023/10/14 18:17:35;;;;;;;7.25;4.47;;;;;;;;;;12630860;23;20021;-71
2023/10/14 18:22:32;;;;;;;5.95;4.93;;;;;;;;;;12621639;23;20035;-70
2023/10/14 18:27:28;;;;;;;6.93;4.80;;;;;;;;;;12625067;23;20703;-70
2023/10/14 18:32:25;;;;;;;6.15;4.80;;;;;;;;;;12630476;23;20024;-70
2023/10/14 18:37:21;;;;;;;6.85;4.82;;;;;;;;;;12634627;23;20028;-70
2023/10/14 18:42:17;;;;;;;8.15;4.88;;;;;;;;;;12636293;23;20033;-71
2023/10/14 18:47:15;;;;;;;7.85;5.28;;;;;;;;;;12636259;23;20120;-70
2023/10/14 18:52:12;;;;;;;5.93;5.35;;;;;;;;;;12634931;23;20035;-71
2023/10/14 18:57:10;;;;;;;6.13;4.90;;;;;;;;;;12635842;23;20048;-71
2023/10/14 19:02:07;;;;;;;6.28;4.57;;;;;;;;;;12629714;23;20055;-70
2023/10/14 19:07:03;;;;;;;5.60;4.20;;;;;;;;;;12633258;23;20083;-70
2023/10/14 19:12:00;;;;;;;6.75;4.13;;;;;;;;;;12622229;23;20027;-71
2023/10/14 19:16:56;;;;;;;6.55;4.03;;;;;;;;;;12628190;23;20706;-71
2023/10/14 19:21:54;;;;;;;4.47;3.15;;;;;;;;;;12629449;23;20020;-71
2023/10/14 19:26:51;;;;;;;3.97;3.40;;;;;;;;;;12633372;23;20055;-71
2023/10/14 19:31:48;;;;;;;6.78;4.07;;;;;;;;;;12634753;23;20021;-70
2023/10/14 19:36:45;;;;;;;6.75;4.00;;;;;;;;;;12634086;23;20028;-71
2023/10/14 19:41:41;;;;;;;7.55;4.13;;;;;;;;;;12635042;23;20028;-70
2023/10/14 19:46:37;;;;;;;7.65;3.80;;;;;;;;;;12634045;23;20028;-71
2023/10/14 19:51:38;;;;;;;4.80;4.03;;;;;;;;;;12634303;23;20082;-70
2023/10/14 19:56:35;;;;;;;7.03;4.70;;;;;;;;;;12635457;23;20028;-71
2023/10/14 20:01:32;;;;;;;12.15;3.92;;;;;;;;;;12635547;23;20344;-71
2023/10/14 20:06:29;;;;;;;9.23;3.47;;;;;;;;;;12634899;23;20126;-71
2023/10/14 20:11:25;;;;;;;5.90;3.92;;;;;;;;;;12630302;23;20028;-70
2023/10/14 20:16:22;;;;;;;9.35;3.35;;;;;;;;;;12630801;23;20021;-70
2023/10/14 20:21:18;;;;;;;6.35;3.90;;;;;;;;;;12627306;23;20024;-70
2023/10/14 20:26:14;;;;;;;7.78;4.45;;;;;;;;;;12625289;23;20021;-70
2023/10/14 20:31:11;;;;;;;10.02;5.13;;;;;;;;;;12633486;23;20024;-71
2023/10/14 20:36:08;;;;;;;9.35;4.47;;;;;;;;;;12633044;23;20099;-70
2023/10/14 20:41:07;;;;;;;7.22;4.78;;;;;;;;;;12633146;23;20031;-71
2023/10/14 20:46:06;;;;;;;6.38;4.88;;;;;;;;;;12634286;23;20056;-69
2023/10/14 20:51:04;;;;;;;6.13;5.10;;;;;;;;;;12623014;23;20031;-70
2023/10/14 20:56:00;;;;;;;9.70;6.50;;;;;;;;;;12620092;23;20078;-70
2023/10/14 21:00:59;;;;;;;7.60;4.95;;;;;;;;;;12627908;23;20027;-70
2023/10/14 21:05:56;;;;;;;8.63;6.10;;;;;;;;;;12628902;23;20024;-70
2023/10/14 21:10:55;;;;;;;8.52;6.40;;;;;;;;;;12626502;23;20028;-70
2023/10/14 21:15:57;;;;;;;15.13;6.78;;;;;;;;;;12632440;23;20134;-69
2023/10/14 21:20:55;;;;;;;9.95;6.78;;;;;;;;;;12631117;23;20505;-66
2023/10/14 21:25:55;;;;;;;13.85;6.68;;;;;;;;;;12632223;23;20367;-68
2023/10/14 21:30:51;;;;;;;8.57;5.47;;;;;;;;;;12634307;23;20031;-69
2023/10/14 21:35:48;;;;;;;13.65;6.47;;;;;;;;;;12632875;23;20031;-69
2023/10/14 21:40:48;;;;;;;11.10;6.40;;;;;;;;;;12633505;23;20054;-69
2023/10/14 21:45:45;;;;;;;8.60;5.88;;;;;;;;;;12627697;23;20367;-68
2023/10/14 21:50:42;;;;;;;9.90;5.60;;;;;;;;;;12632113;23;20467;-70
2023/10/14 21:55:40;;;;;;;8.32;4.78;;;;;;;;;;12626993;23;20091;-69
2023/10/14 22:00:39;;;;;;;8.55;5.28;;;;;;;;;;12633824;23;20627;-70
2023/10/14 22:05:36;;;;;;;5.10;4.60;;;;;;;;;;12635123;23;20031;-70
2023/10/14 22:10:32;;;;;;;6.70;4.47;;;;;;;;;;12635491;23;20026;-70
2023/10/14 22:15:29;;;;;;;4.88;4.47;;;;;;;;;;12635898;23;20032;-69
2023/10/14 22:20:28;;;;;;;9.07;4.60;;;;;;;;;;12636440;23;20525;-67
2023/10/14 22:25:24;;;;;;;5.25;4.63;;;;;;;;;;12637206;23;20631;-67
2023/10/14 22:30:21;;;;;;;5.82;4.63;;;;;;;;;;12637330;23;20025;-68
2023/10/14 22:35:21;;;;;;;6.30;5.10;;;;;;;;;;12637145;23;20048;-67
2023/10/14 22:40:24;;;;;;;6.07;5.10;;;;;;;;;;12637947;23;20078;-67
2023/10/14 22:45:23;;;;;;;8.88;5.60;;;;;;;;;;12637252;23;20363;-67
2023/10/14 22:50:19;;;;;;;5.88;5.38;;;;;;;;;;12637691;23;20090;-68
2023/10/14 22:55:19;;;;;;;6.80;6.10;;;;;;;;;;12636043;23;20517;-68
2023/10/14 23:00:20;;;;;;;8.65;6.82;;;;;;;;;;12624833;23;20032;-67
2023/10/14 23:05:26;;;;;;;12.43;6.65;;;;;;;;;;12636730;23;20032;-68
2023/10/14 23:10:23;;;;;;;6.53;6.00;;;;;;;;;;12637540;23;20025;-68
2023/10/14 23:15:26;;;;;;;7.72;6.18;;;;;;;;;;12636388;23;20021;-68
2023/10/14 23:20:26;;;;;;;6.38;5.70;;;;;;;;;;12637019;23;20025;-68
2023/10/14 23:25:25;;;;;;;9.38;6.10;;;;;;;;;;12635936;23;20025;-68
2023/10/14 23:30:23;;;;;;;7.75;5.75;;;;;;;;;;12636944;23;20016;-68
2023/10/14 23:35:23;;;;;;;9.75;5.95;;;;;;;;;;12634623;23;20017;-67
2023/10/14 23:40:20;;;;;;;9.45;6.63;;;;;;;;;;12636714;23;20044;-67
2023/10/14 23:45:16;;;;;;;7.25;5.88;;;;;;;;;;12635986;23;20095;-67
2023/10/14 23:50:13;;;;;;;6.18;5.68;;;;;;;;;;12636111;23;20021;-68
2023/10/14 23:55:12;;;;;;;7.47;6.78;;;;;;;;;;12636179;23;20059;-67
